createdAt,value
2022-10-23T07:35:10.965Z,41.2
2022-10-23T07:40:34.286Z,41.8
2022-10-23T07:46:00.432Z,42.7
2022-10-23T07:51:38.143Z,43.7
2022-10-23T07:57:21.982Z,44.3
2022-10-23T08:02:47.434Z,44.6
2022-10-23T08:08:09.520Z,46.2
2022-10-23T08:14:22.679Z,47.1
2022-10-23T08:20:03.110Z,47.8
2022-10-23T08:25:42.450Z,47.3
2022-10-23T08:31:05.493Z,48.2
2022-10-23T08:36:42.286Z,49.3
2022-10-23T08:42:23.864Z,49.9
2022-10-23T08:48:01.832Z,50.7
2022-10-23T09:22:07.252Z,54.1
2022-10-23T09:27:45.785Z,54.6
2022-10-23T09:33:26.513Z,54.9
2022-10-23T09:38:49.218Z,55.4
2022-10-23T09:44:31.541Z,55.8
2022-10-23T09:50:12.696Z,56.1
2022-10-23T09:55:35.067Z,56.4
2022-10-23T10:01:14.249Z,56.6
2022-10-23T10:06:52.123Z,56.9
2022-10-23T10:12:29.782Z,57.2
2022-10-23T10:18:08.072Z,57.4
2022-10-23T10:23:48.696Z,57.6
2022-10-23T10:29:32.917Z,58.1
2022-10-23T10:35:15.588Z,58.1
2022-10-23T10:40:56.382Z,57.7
2022-10-23T10:46:18.714Z,58
2022-10-23T10:51:57.240Z,57.5
2022-10-23T10:57:37.223Z,58.2
2022-10-23T11:03:18.829Z,58.3
2022-10-23T11:09:20.093Z,58.1
2022-10-23T11:14:58.057Z,57.6
2022-10-23T11:20:37.819Z,57.2
2022-10-23T11:26:19.879Z,57.9
2022-10-23T11:32:03.156Z,57.7
2022-10-23T11:37:43.899Z,57.1
2022-10-23T11:43:11.528Z,58.4
2022-10-23T11:48:33.738Z,57.8
2022-10-23T11:54:20.999Z,56.1
2022-10-23T11:59:46.067Z,55.9
2022-10-23T12:05:09.211Z,56.3
2022-10-23T12:10:31.270Z,54.1
2022-10-23T12:16:17.572Z,48.5
2022-10-23T12:21:40.001Z,44.5
2022-10-23T12:27:17.072Z,41.1
2022-10-23T12:32:56.098Z,38.5
2022-10-23T12:38:34.105Z,38.9
2022-10-23T12:44:13.352Z,58.4
2022-10-23T12:49:57.771Z,53.3
2022-10-23T12:55:35.772Z,47.8
2022-10-23T13:01:13.167Z,43.6
2022-10-23T13:06:57.328Z,40.4
2022-10-23T13:12:19.489Z,38
2022-10-23T13:17:41.945Z,36.1
2022-10-23T13:22:49.612Z,34.6
2022-10-23T13:28:10.763Z,33.4
